sensor_id;sensor_type;location;lat;lon;timestamp;pressure;altitude;pressure_sealevel;temperature;humidity
13954;BME280;7049;49.444;8.522;2022-08-19T00:03:08;76207.25;;;-3.47;59.27
13954;BME280;7049;49.444;8.522;2022-08-19T00:08:10;76198.88;;;-3.47;59.93
13954;BME280;7049;49.444;8.522;2022-08-19T00:13:13;76186.34;;;-3.47;60.26
13954;BME280;7049;49.444;8.522;2022-08-19T00:18:15;76180.06;;;-3.47;59.90
13954;BME280;7049;49.444;8.522;2022-08-19T00:23:17;76177.97;;;-3.47;59.90
13954;BME280;7049;49.444;8.522;2022-08-19T00:28:20;76184.25;;;-3.47;60.27
13954;BME280;7049;49.444;8.522;2022-08-19T00:33:21;76196.78;;;-3.47;60.39
13954;BME280;7049;49.444;8.522;2022-08-19T00:38:23;76198.88;;;-3.47;60.54
13954;BME280;7049;49.444;8.522;2022-08-19T00:43:27;76194.69;;;-3.47;60.28
13954;BME280;7049;49.444;8.522;2022-08-19T00:48:29;76190.50;;;-3.47;60.18
13954;BME280;7049;49.444;8.522;2022-08-19T00:53:31;76177.97;;;-3.47;61.20
13954;BME280;7049;49.444;8.522;2022-08-19T00:58:35;76186.34;;;-3.47;60.52
13954;BME280;7049;49.444;8.522;2022-08-19T01:03:37;76192.59;;;-3.47;60.42
13954;BME280;7049;49.444;8.522;2022-08-19T01:08:38;76194.69;;;-3.47;61.11
13954;BME280;7049;49.444;8.522;2022-08-19T01:13:41;76186.34;;;-3.47;61.22
13954;BME280;7049;49.444;8.522;2022-08-19T01:18:43;76184.25;;;-3.47;60.90
13954;BME280;7049;49.444;8.522;2022-08-19T01:23:46;76203.06;;;-3.47;60.58
13954;BME280;7049;49.444;8.522;2022-08-19T01:28:50;76215.63;;;-3.47;60.91
13954;BME280;7049;49.444;8.522;2022-08-19T01:33:55;76215.63;;;-3.47;61.24
13954;BME280;7049;49.444;8.522;2022-08-19T01:38:58;76211.44;;;-3.47;61.56
13954;BME280;7049;49.444;8.522;2022-08-19T01:44:00;76209.34;;;-3.47;61.16
13954;BME280;7049;49.444;8.522;2022-08-19T01:49:05;76211.44;;;-3.47;60.58
13954;BME280;7049;49.444;8.522;2022-08-19T01:54:09;76211.44;;;-3.47;60.15
13954;BME280;7049;49.444;8.522;2022-08-19T01:59:14;76215.63;;;-3.47;60.29
13954;BME280;7049;49.444;8.522;2022-08-19T02:04:17;76213.53;;;-3.47;60.34
13954;BME280;7049;49.444;8.522;2022-08-19T02:09:20;76215.63;;;-3.47;60.08
13954;BME280;7049;49.444;8.522;2022-08-19T02:14:21;76230.25;;;-3.47;59.98
13954;BME280;7049;49.444;8.522;2022-08-19T02:19:23;76230.25;;;-3.47;60.09
13954;BME280;7049;49.444;8.522;2022-08-19T02:24:26;76228.16;;;-3.47;59.80
13954;BME280;7049;49.444;8.522;2022-08-19T02:29:28;76240.72;;;-3.47;60.00
13954;BME280;7049;49.444;8.522;2022-08-19T02:34:29;76249.06;;;-3.47;59.98
13954;BME280;7049;49.444;8.522;2022-08-19T02:39:32;76244.91;;;-3.47;60.75
13954;BME280;7049;49.444;8.522;2022-08-19T02:44:34;76242.81;;;-3.47;61.26
13954;BME280;7049;49.444;8.522;2022-08-19T02:49:35;76242.81;;;-3.47;61.96
13954;BME280;7049;49.444;8.522;2022-08-19T02:54:38;76249.06;;;-3.47;61.94
13954;BME280;7049;49.444;8.522;2022-08-19T02:59:40;76253.25;;;-3.47;61.93
13954;BME280;7049;49.444;8.522;2022-08-19T03:04:42;76249.06;;;-3.47;62.23
13954;BME280;7049;49.444;8.522;2022-08-19T03:09:45;76249.06;;;-3.47;62.39
13954;BME280;7049;49.444;8.522;2022-08-19T03:14:46;76253.25;;;-3.47;62.64
13954;BME280;7049;49.444;8.522;2022-08-19T03:19:48;76261.63;;;-3.47;62.78
13954;BME280;7049;49.444;8.522;2022-08-19T03:24:50;76278.34;;;-3.47;63.11
13954;BME280;7049;49.444;8.522;2022-08-19T03:29:53;76282.53;;;-3.47;63.15
13954;BME280;7049;49.444;8.522;2022-08-19T03:34:55;76280.44;;;-3.47;63.42
13954;BME280;7049;49.444;8.522;2022-08-19T03:39:58;76284.63;;;-3.47;63.67
13954;BME280;7049;49.444;8.522;2022-08-19T03:44:59;76293.00;;;-3.47;63.82
13954;BME280;7049;49.444;8.522;2022-08-19T03:50:01;76305.53;;;-3.47;63.82
13954;BME280;7049;49.444;8.522;2022-08-19T03:55:25;76316.00;;;-3.47;63.69
13954;BME280;7049;49.444;8.522;2022-08-19T04:00:27;76326.47;;;-3.47;63.76
13954;BME280;7049;49.444;8.522;2022-08-19T04:05:28;76318.09;;;-3.47;63.38
13954;BME280;7049;49.444;8.522;2022-08-19T04:10:40;76322.28;;;-3.47;63.14
13954;BME280;7049;49.444;8.522;2022-08-19T04:15:50;76328.56;;;-3.47;63.51
13954;BME280;7049;49.444;8.522;2022-08-19T04:20:51;76324.38;;;-3.47;63.90
13954;BME280;7049;49.444;8.522;2022-08-19T04:25:54;76318.09;;;-3.47;64.51
13954;BME280;7049;49.444;8.522;2022-08-19T04:30:56;76320.19;;;-3.47;64.67
13954;BME280;7049;49.444;8.522;2022-08-19T04:35:58;76322.28;;;-3.47;64.34
13954;BME280;7049;49.444;8.522;2022-08-19T04:41:03;76324.38;;;-3.47;64.32
13954;BME280;7049;49.444;8.522;2022-08-19T04:46:22;76322.28;;;-3.47;64.28
13954;BME280;7049;49.444;8.522;2022-08-19T04:51:42;76324.38;;;-3.47;64.21
13954;BME280;7049;49.444;8.522;2022-08-19T04:56:49;76334.84;;;-3.47;64.99
13954;BME280;7049;49.444;8.522;2022-08-19T05:01:51;76343.19;;;-3.47;65.08
13954;BME280;7049;49.444;8.522;2022-08-19T05:06:52;76343.19;;;-3.47;65.05
13954;BME280;7049;49.444;8.522;2022-08-19T05:11:55;76332.75;;;-3.47;65.23
13954;BME280;7049;49.444;8.522;2022-08-19T05:16:57;76341.09;;;-3.47;65.90
13954;BME280;7049;49.444;8.522;2022-08-19T05:21:59;76347.38;;;-3.47;66.51
13954;BME280;7049;49.444;8.522;2022-08-19T05:27:20;76341.09;;;-3.47;66.13
13954;BME280;7049;49.444;8.522;2022-08-19T05:32:21;76341.09;;;-3.47;66.06
13954;BME280;7049;49.444;8.522;2022-08-19T05:37:23;76349.47;;;-3.47;65.00
13954;BME280;7049;49.444;8.522;2022-08-19T05:42:28;76343.19;;;-3.47;64.23
13954;BME280;7049;49.444;8.522;2022-08-19T05:47:30;76347.38;;;-3.47;64.26
13954;BME280;7049;49.444;8.522;2022-08-19T05:52:32;76341.09;;;-3.47;64.32
13954;BME280;7049;49.444;8.522;2022-08-19T05:57:37;76336.91;;;-3.47;64.07
13954;BME280;7049;49.444;8.522;2022-08-19T06:02:39;76341.09;;;-3.47;64.14
13954;BME280;7049;49.444;8.522;2022-08-19T06:07:41;76336.91;;;-3.47;64.33
13954;BME280;7049;49.444;8.522;2022-08-19T06:12:43;76341.09;;;-3.47;63.74
13954;BME280;7049;49.444;8.522;2022-08-19T06:17:45;76341.09;;;-3.47;62.96
13954;BME280;7049;49.444;8.522;2022-08-19T06:22:48;76330.66;;;-3.47;63.32
13954;BME280;7049;49.444;8.522;2022-08-19T06:27:52;76328.56;;;-3.47;63.71
13954;BME280;7049;49.444;8.522;2022-08-19T06:32:54;76324.38;;;-3.47;62.96
13954;BME280;7049;49.444;8.522;2022-08-19T06:37:56;76326.47;;;-3.47;63.11
13954;BME280;7049;49.444;8.522;2022-08-19T06:43:04;76322.28;;;-3.47;62.63
13954;BME280;7049;49.444;8.522;2022-08-19T06:48:10;76305.53;;;-3.47;62.46
13954;BME280;7049;49.444;8.522;2022-08-19T06:53:12;76309.72;;;-3.47;62.23
13954;BME280;7049;49.444;8.522;2022-08-19T06:58:15;76307.63;;;-3.47;62.75
13954;BME280;7049;49.444;8.522;2022-08-19T07:03:16;76299.28;;;-3.47;61.63
13954;BME280;7049;49.444;8.522;2022-08-19T07:08:18;76295.09;;;-3.47;61.04
13954;BME280;7049;49.444;8.522;2022-08-19T07:13:21;76282.53;;;-3.47;61.65
13954;BME280;7049;49.444;8.522;2022-08-19T07:18:23;76280.44;;;-3.47;61.58
13954;BME280;7049;49.444;8.522;2022-08-19T07:23:24;76274.19;;;-3.47;60.51
13954;BME280;7049;49.444;8.522;2022-08-19T07:28:27;76257.44;;;-3.47;60.10
13954;BME280;7049;49.444;8.522;2022-08-19T07:33:28;76238.63;;;-3.47;59.67
13954;BME280;7049;49.444;8.522;2022-08-19T07:38:33;76228.16;;;-3.47;59.87
13954;BME280;7049;49.444;8.522;2022-08-19T07:43:36;76211.44;;;-3.47;59.32
13954;BME280;7049;49.444;8.522;2022-08-19T07:48:38;76198.88;;;-3.47;58.39
13954;BME280;7049;49.444;8.522;2022-08-19T07:53:39;76190.50;;;-3.47;57.83
13954;BME280;7049;49.444;8.522;2022-08-19T07:58:44;76175.88;;;-3.47;58.01
13954;BME280;7049;49.444;8.522;2022-08-19T08:03:47;76157.06;;;-3.47;57.02
13954;BME280;7049;49.444;8.522;2022-08-19T08:09:07;76106.84;;;-3.47;57.15
13954;BME280;7049;49.444;8.522;2022-08-19T08:14:13;76035.75;;;-3.47;56.45
13954;BME280;7049;49.444;8.522;2022-08-19T08:19:16;75979.28;;;-3.47;54.21
13954;BME280;7049;49.444;8.522;2022-08-19T08:24:18;75939.53;;;-3.47;52.08
13954;BME280;7049;49.444;8.522;2022-08-19T08:29:21;75920.72;;;-3.47;51.11
13954;BME280;7049;49.444;8.522;2022-08-19T08:34:23;75904.00;;;-3.47;50.10
13954;BME280;7049;49.444;8.522;2022-08-19T08:39:24;75864.25;;;-3.47;50.37
13954;BME280;7049;49.444;8.522;2022-08-19T08:44:32;75811.97;;;-3.47;48.37
13954;BME280;7049;49.444;8.522;2022-08-19T08:49:41;75761.78;;;-3.47;46.42
13954;BME280;7049;49.444;8.522;2022-08-19T08:54:47;75724.16;;;-3.47;44.80
13954;BME280;7049;49.444;8.522;2022-08-19T08:59:51;75676.06;;;-3.47;43.38
13954;BME280;7049;49.444;8.522;2022-08-19T09:04:55;75630.03;;;-3.47;42.62
13954;BME280;7049;49.444;8.522;2022-08-19T09:10:04;75598.69;;;-3.47;42.48
13954;BME280;7049;49.444;8.522;2022-08-19T09:15:13;75563.13;;;-3.47;40.69
13954;BME280;7049;49.444;8.522;2022-08-19T09:20:19;75525.50;;;-3.47;39.53
13954;BME280;7049;49.444;8.522;2022-08-19T09:25:21;75510.84;;;-3.47;38.41
13954;BME280;7049;49.444;8.522;2022-08-19T09:30:27;75492.03;;;-3.47;37.91
13954;BME280;7049;49.444;8.522;2022-08-19T09:35:30;75504.56;;;-3.47;37.60
13954;BME280;7049;49.444;8.522;2022-08-19T09:40:31;75483.66;;;-3.47;37.16
13954;BME280;7049;49.444;8.522;2022-08-19T09:45:34;75441.84;;;-3.47;36.70
13954;BME280;7049;49.444;8.522;2022-08-19T09:50:36;75410.47;;;-3.47;36.68
13954;BME280;7049;49.444;8.522;2022-08-19T09:55:41;75358.22;;;-3.47;35.97
13954;BME280;7049;49.444;8.522;2022-08-19T10:00:44;75324.75;;;-3.47;35.62
13954;BME280;7049;49.444;8.522;2022-08-19T10:05:46;75354.03;;;-3.47;35.46
13954;BME280;7049;49.444;8.522;2022-08-19T10:10:52;75383.31;;;-3.47;35.59
13954;BME280;7049;49.444;8.522;2022-08-19T10:16:01;75408.41;;;-3.47;35.62
13954;BME280;7049;49.444;8.522;2022-08-19T10:21:06;75400.03;;;-3.47;36.18
13954;BME280;7049;49.444;8.522;2022-08-19T10:26:08;75393.75;;;-3.47;36.55
13954;BME280;7049;49.444;8.522;2022-08-19T10:31:14;75366.56;;;-3.47;36.39
13954;BME280;7049;49.444;8.522;2022-08-19T10:36:19;75326.84;;;-3.47;36.14
13954;BME280;7049;49.444;8.522;2022-08-19T10:41:25;75274.56;;;-3.47;35.19
13954;BME280;7049;49.444;8.522;2022-08-19T10:46:36;75274.56;;;-3.47;34.24
13954;BME280;7049;49.444;8.522;2022-08-19T10:51:38;75310.13;;;-3.47;34.96
13954;BME280;7049;49.444;8.522;2022-08-19T10:56:58;75333.13;;;-3.47;35.46
13954;BME280;7049;49.444;8.522;2022-08-19T11:02:11;75299.66;;;-3.47;36.00
13954;BME280;7049;49.444;8.522;2022-08-19T11:07:13;75287.13;;;-3.47;35.55
13954;BME280;7049;49.444;8.522;2022-08-19T11:12:14;75247.38;;;-3.47;34.68
13954;BME280;7049;49.444;8.522;2022-08-19T11:17:17;75190.94;;;-3.47;34.89
13954;BME280;7049;49.444;8.522;2022-08-19T11:22:19;75170.03;;;-3.47;34.00
13954;BME280;7049;49.444;8.522;2022-08-19T11:27:21;75161.66;;;-3.47;33.30
13954;BME280;7049;49.444;8.522;2022-08-19T11:32:24;75126.13;;;-3.47;33.46
13954;BME280;7049;49.444;8.522;2022-08-19T11:37:25;75101.03;;;-3.47;33.56
13954;BME280;7049;49.444;8.522;2022-08-19T11:42:27;75082.22;;;-3.47;32.22
13954;BME280;7049;49.444;8.522;2022-08-19T11:47:47;75050.84;;;-3.47;31.38
13954;BME280;7049;49.444;8.522;2022-08-19T11:52:49;75032.03;;;-3.47;31.23
13954;BME280;7049;49.444;8.522;2022-08-19T11:57:51;75021.56;;;-3.47;31.19
13954;BME280;7049;49.444;8.522;2022-08-19T12:02:54;75046.66;;;-3.47;31.49
13954;BME280;7049;49.444;8.522;2022-08-19T12:07:55;75057.13;;;-3.47;31.43
13954;BME280;7049;49.444;8.522;2022-08-19T12:12:57;75052.94;;;-3.47;30.82
13954;BME280;7049;49.444;8.522;2022-08-19T12:18:00;75094.75;;;-3.47;31.00
13954;BME280;7049;49.444;8.522;2022-08-19T12:23:01;75090.56;;;-3.47;31.07
13954;BME280;7049;49.444;8.522;2022-08-19T12:28:03;75094.75;;;-3.47;31.32
13954;BME280;7049;49.444;8.522;2022-08-19T12:33:06;75084.31;;;-3.47;30.62
13954;BME280;7049;49.444;8.522;2022-08-19T12:38:07;75065.47;;;-3.47;30.38
13954;BME280;7049;49.444;8.522;2022-08-19T12:43:09;75052.94;;;-3.47;29.69
13954;BME280;7049;49.444;8.522;2022-08-19T12:48:13;75073.84;;;-3.47;29.55
13954;BME280;7049;49.444;8.522;2022-08-19T12:53:15;75109.38;;;-3.47;29.79
13954;BME280;7049;49.444;8.522;2022-08-19T12:58:17;75098.94;;;-3.47;30.17
13954;BME280;7049;49.444;8.522;2022-08-19T13:03:20;75082.22;;;-3.47;29.61
13954;BME280;7049;49.444;8.522;2022-08-19T13:08:27;75065.47;;;-3.47;29.99
13954;BME280;7049;49.444;8.522;2022-08-19T13:13:29;75032.03;;;-3.47;28.39
13954;BME280;7049;49.444;8.522;2022-08-19T13:18:31;74998.56;;;-3.47;28.55
13954;BME280;7049;49.444;8.522;2022-08-19T13:23:34;75002.75;;;-3.47;28.20
13954;BME280;7049;49.444;8.522;2022-08-19T13:28:36;74988.13;;;-3.47;27.99
13954;BME280;7049;49.444;8.522;2022-08-19T13:33:56;74973.50;;;-3.47;27.59
13954;BME280;7049;49.444;8.522;2022-08-19T13:38:58;74965.13;;;-3.47;27.58
13954;BME280;7049;49.444;8.522;2022-08-19T13:43:59;74956.75;;;-3.47;27.35
13954;BME280;7049;49.444;8.522;2022-08-19T13:49:03;74942.13;;;-3.47;27.97
13954;BME280;7049;49.444;8.522;2022-08-19T13:54:04;74927.50;;;-3.47;26.85
13954;BME280;7049;49.444;8.522;2022-08-19T13:59:06;74921.22;;;-3.47;27.43
13954;BME280;7049;49.444;8.522;2022-08-19T14:04:09;74906.59;;;-3.47;27.38
13954;BME280;7049;49.444;8.522;2022-08-19T14:09:10;74900.31;;;-3.47;27.36
13954;BME280;7049;49.444;8.522;2022-08-19T14:14:12;74871.03;;;-3.47;26.78
13954;BME280;7049;49.444;8.522;2022-08-19T14:19:14;74864.78;;;-3.47;26.70
13954;BME280;7049;49.444;8.522;2022-08-19T14:24:16;74864.78;;;-3.47;26.63
13954;BME280;7049;49.444;8.522;2022-08-19T14:29:17;74839.69;;;-3.47;26.21
13954;BME280;7049;49.444;8.522;2022-08-19T14:34:20;74810.41;;;-3.47;25.87
13954;BME280;7049;49.444;8.522;2022-08-19T14:39:22;74804.16;;;-3.47;26.13
13954;BME280;7049;49.444;8.522;2022-08-19T14:44:23;74804.16;;;-3.47;26.19
13954;BME280;7049;49.444;8.522;2022-08-19T14:49:26;74843.88;;;-3.47;25.96
13954;BME280;7049;49.444;8.522;2022-08-19T14:54:28;74854.31;;;-3.47;26.53
13954;BME280;7049;49.444;8.522;2022-08-19T14:59:29;74843.88;;;-3.47;26.16
13954;BME280;7049;49.444;8.522;2022-08-19T15:04:32;74848.03;;;-3.47;26.25
13954;BME280;7049;49.444;8.522;2022-08-19T15:09:36;74873.13;;;-3.47;26.40
13954;BME280;7049;49.444;8.522;2022-08-19T15:14:40;74908.69;;;-3.47;26.68
13954;BME280;7049;49.444;8.522;2022-08-19T15:19:43;74940.03;;;-3.47;26.73
13954;BME280;7049;49.444;8.522;2022-08-19T15:24:45;74946.31;;;-3.47;27.05
13954;BME280;7049;49.444;8.522;2022-08-19T15:29:46;74954.66;;;-3.47;26.36
13954;BME280;7049;49.444;8.522;2022-08-19T15:34:49;74969.31;;;-3.47;26.55
13954;BME280;7049;49.444;8.522;2022-08-19T15:39:51;74975.59;;;-3.47;26.50
13954;BME280;7049;49.444;8.522;2022-08-19T15:44:52;74983.94;;;-3.47;27.08
13954;BME280;7049;49.444;8.522;2022-08-19T15:49:55;75000.66;;;-3.47;26.96
13954;BME280;7049;49.444;8.522;2022-08-19T15:54:56;75021.56;;;-3.47;27.44
13954;BME280;7049;49.444;8.522;2022-08-19T15:59:58;75052.94;;;-3.47;27.31
13954;BME280;7049;49.444;8.522;2022-08-19T16:05:21;75052.94;;;-3.47;27.87
13954;BME280;7049;49.444;8.522;2022-08-19T16:10:41;75057.13;;;-3.47;27.74
13954;BME280;7049;49.444;8.522;2022-08-19T16:15:42;75065.47;;;-3.47;27.60
13954;BME280;7049;49.444;8.522;2022-08-19T16:20:45;75082.22;;;-3.47;28.22
13954;BME280;7049;49.444;8.522;2022-08-19T16:25:47;75107.31;;;-3.47;28.49
13954;BME280;7049;49.444;8.522;2022-08-19T16:30:49;75124.03;;;-3.47;29.05
13954;BME280;7049;49.444;8.522;2022-08-19T16:35:52;75155.38;;;-3.47;29.81
13954;BME280;7049;49.444;8.522;2022-08-19T16:40:53;75182.56;;;-3.47;29.82
13954;BME280;7049;49.444;8.522;2022-08-19T16:45:56;75203.47;;;-3.47;29.97
13954;BME280;7049;49.444;8.522;2022-08-19T16:50:59;75224.38;;;-3.47;30.12
13954;BME280;7049;49.444;8.522;2022-08-19T16:56:02;75243.22;;;-3.47;29.87
13954;BME280;7049;49.444;8.522;2022-08-19T17:01:05;75255.75;;;-3.47;30.02
13954;BME280;7049;49.444;8.522;2022-08-19T17:06:11;75270.38;;;-3.47;30.35
13954;BME280;7049;49.444;8.522;2022-08-19T17:11:13;75282.94;;;-3.47;30.47
13954;BME280;7049;49.444;8.522;2022-08-19T17:16:15;75295.47;;;-3.47;30.88
13954;BME280;7049;49.444;8.522;2022-08-19T17:21:18;75314.28;;;-3.47;31.02
13954;BME280;7049;49.444;8.522;2022-08-19T17:26:20;75322.66;;;-3.47;30.68
13954;BME280;7049;49.444;8.522;2022-08-19T17:31:25;75343.56;;;-3.47;30.58
13954;BME280;7049;49.444;8.522;2022-08-19T17:36:30;75354.03;;;-3.47;30.96
13954;BME280;7049;49.444;8.522;2022-08-19T17:41:32;75364.47;;;-3.47;31.06
13954;BME280;7049;49.444;8.522;2022-08-19T17:46:34;75391.66;;;-3.47;31.47
13954;BME280;7049;49.444;8.522;2022-08-19T17:51:40;75404.22;;;-3.47;31.45
13954;BME280;7049;49.444;8.522;2022-08-19T17:56:42;75408.41;;;-3.47;31.57
13954;BME280;7049;49.444;8.522;2022-08-19T18:01:46;75420.94;;;-3.47;31.69
13954;BME280;7049;49.444;8.522;2022-08-19T18:06:50;75433.47;;;-3.47;32.00
13954;BME280;7049;49.444;8.522;2022-08-19T18:11:53;75446.03;;;-3.47;31.88
13954;BME280;7049;49.444;8.522;2022-08-19T18:16:56;75454.41;;;-3.47;32.19
13954;BME280;7049;49.444;8.522;2022-08-19T18:21:59;75475.31;;;-3.47;32.16
13954;BME280;7049;49.444;8.522;2022-08-19T18:27:00;75487.84;;;-3.47;32.41
13954;BME280;7049;49.444;8.522;2022-08-19T18:32:02;75500.41;;;-3.47;32.55
13954;BME280;7049;49.444;8.522;2022-08-19T18:37:05;75517.13;;;-3.47;33.06
13954;BME280;7049;49.444;8.522;2022-08-19T18:42:12;75533.84;;;-3.47;33.34
13954;BME280;7049;49.444;8.522;2022-08-19T18:47:31;75552.69;;;-3.47;33.55
13954;BME280;7049;49.444;8.522;2022-08-19T18:52:52;75561.03;;;-3.47;33.83
13954;BME280;7049;49.444;8.522;2022-08-19T18:57:53;75577.78;;;-3.47;33.72
13954;BME280;7049;49.444;8.522;2022-08-19T19:02:55;75596.59;;;-3.47;33.71
13954;BME280;7049;49.444;8.522;2022-08-19T19:07:57;75613.31;;;-3.47;34.16
13954;BME280;7049;49.444;8.522;2022-08-19T19:12:59;75627.94;;;-3.47;34.73
13954;BME280;7049;49.444;8.522;2022-08-19T19:18:01;75648.88;;;-3.47;34.96
13954;BME280;7049;49.444;8.522;2022-08-19T19:23:03;75665.59;;;-3.47;34.51
13954;BME280;7049;49.444;8.522;2022-08-19T19:28:07;75682.31;;;-3.47;34.95
13954;BME280;7049;49.444;8.522;2022-08-19T19:33:09;75699.06;;;-3.47;34.75
13954;BME280;7049;49.444;8.522;2022-08-19T19:38:12;75709.50;;;-3.47;34.86
13954;BME280;7049;49.444;8.522;2022-08-19T19:43:13;75726.25;;;-3.47;34.93
13954;BME280;7049;49.444;8.522;2022-08-19T19:48:17;75749.25;;;-3.47;35.03
13954;BME280;7049;49.444;8.522;2022-08-19T19:53:20;75759.69;;;-3.47;35.39
13954;BME280;7049;49.444;8.522;2022-08-19T19:58:23;75780.59;;;-3.47;34.96
13954;BME280;7049;49.444;8.522;2022-08-19T20:03:25;75791.06;;;-3.47;35.24
13954;BME280;7049;49.444;8.522;2022-08-19T20:08:28;75814.06;;;-3.47;35.14
13954;BME280;7049;49.444;8.522;2022-08-19T20:13:47;75826.63;;;-3.47;35.20
13954;BME280;7049;49.444;8.522;2022-08-19T20:18:48;75839.16;;;-3.47;35.15
13954;BME280;7049;49.444;8.522;2022-08-19T20:23:51;75857.97;;;-3.47;35.28
13954;BME280;7049;49.444;8.522;2022-08-19T20:28:54;75870.53;;;-3.47;35.52
13954;BME280;7049;49.444;8.522;2022-08-19T20:33:56;75887.25;;;-3.47;35.80
13954;BME280;7049;49.444;8.522;2022-08-19T20:38:59;75901.91;;;-3.47;35.58
13954;BME280;7049;49.444;8.522;2022-08-19T20:44:01;75914.44;;;-3.47;35.51
13954;BME280;7049;49.444;8.522;2022-08-19T20:49:04;75929.09;;;-3.47;35.63
13954;BME280;7049;49.444;8.522;2022-08-19T20:54:07;75945.81;;;-3.47;35.79
13954;BME280;7049;49.444;8.522;2022-08-19T20:59:08;75952.09;;;-3.47;35.87
13954;BME280;7049;49.444;8.522;2022-08-19T21:04:10;75964.66;;;-3.47;35.84
13954;BME280;7049;49.444;8.522;2022-08-19T21:09:13;75968.81;;;-3.47;36.24
13954;BME280;7049;49.444;8.522;2022-08-19T21:14:15;75979.28;;;-3.47;36.84
13954;BME280;7049;49.444;8.522;2022-08-19T21:19:16;75993.91;;;-3.47;36.85
13954;BME280;7049;49.444;8.522;2022-08-19T21:24:20;76014.84;;;-3.47;37.14
13954;BME280;7049;49.444;8.522;2022-08-19T21:29:21;76016.94;;;-3.47;37.23
13954;BME280;7049;49.444;8.522;2022-08-19T21:34:23;76029.47;;;-3.47;37.68
13954;BME280;7049;49.444;8.522;2022-08-19T21:39:25;76039.94;;;-3.47;37.26
13954;BME280;7049;49.444;8.522;2022-08-19T21:44:27;76048.28;;;-3.47;37.79
13954;BME280;7049;49.444;8.522;2022-08-19T21:49:29;76065.03;;;-3.47;37.99
13954;BME280;7049;49.444;8.522;2022-08-19T21:54:33;76085.94;;;-3.47;38.45
13954;BME280;7049;49.444;8.522;2022-08-19T21:59:34;76094.31;;;-3.47;38.86
13954;BME280;7049;49.444;8.522;2022-08-19T22:04:35;76106.84;;;-3.47;39.20
13954;BME280;7049;49.444;8.522;2022-08-19T22:09:42;76119.41;;;-3.47;39.46
13954;BME280;7049;49.444;8.522;2022-08-19T22:14:43;76123.59;;;-3.47;40.10
13954;BME280;7049;49.444;8.522;2022-08-19T22:19:45;76136.13;;;-3.47;40.31
13954;BME280;7049;49.444;8.522;2022-08-19T22:24:48;76146.59;;;-3.47;40.51
13954;BME280;7049;49.444;8.522;2022-08-19T22:29:50;76159.16;;;-3.47;40.74
13954;BME280;7049;49.444;8.522;2022-08-19T22:34:51;76169.59;;;-3.47;40.64
13954;BME280;7049;49.444;8.522;2022-08-19T22:39:55;76186.34;;;-3.47;40.07
13954;BME280;7049;49.444;8.522;2022-08-19T22:44:57;76198.88;;;-3.47;40.67
13954;BME280;7049;49.444;8.522;2022-08-19T22:49:58;76205.16;;;-3.47;41.78
13954;BME280;7049;49.444;8.522;2022-08-19T22:55:04;76219.78;;;-3.47;42.49
13954;BME280;7049;49.444;8.522;2022-08-19T23:00:08;76234.44;;;-3.47;42.08
13954;BME280;7049;49.444;8.522;2022-08-19T23:05:10;76234.44;;;-3.47;43.07
13954;BME280;7049;49.444;8.522;2022-08-19T23:10:13;76238.63;;;-3.47;43.52
13954;BME280;7049;49.444;8.522;2022-08-19T23:15:17;76247.00;;;-3.47;43.69
13954;BME280;7049;49.444;8.522;2022-08-19T23:20:22;76253.25;;;-3.47;44.09
13954;BME280;7049;49.444;8.522;2022-08-19T23:25:29;76261.63;;;-3.47;43.99
13954;BME280;7049;49.444;8.522;2022-08-19T23:30:32;76259.53;;;-3.47;45.04
13954;BME280;7049;49.444;8.522;2022-08-19T23:35:35;76267.91;;;-3.47;45.64
13954;BME280;7049;49.444;8.522;2022-08-19T23:40:38;76282.53;;;-3.47;46.13
13954;BME280;7049;49.444;8.522;2022-08-19T23:45:40;76290.91;;;-3.47;46.31
13954;BME280;7049;49.444;8.522;2022-08-19T23:50:43;76303.47;;;-3.47;46.71
13954;BME280;7049;49.444;8.522;2022-08-19T23:55:47;76307.63;;;-3.47;47.41
